sensor_id;sensor_type;location;lat;lon;timestamp;pressure;altitude;pressure_sealevel;temperature
10598;BMP180;5346;48.766;8.674;2022-09-24T00:00:39;93835.00;;;10.50
10598;BMP180;5346;48.766;8.674;2022-09-24T00:03:06;93842.00;;;10.50
10598;BMP180;5346;48.766;8.674;2022-09-24T00:05:38;93838.00;;;10.50
10598;BMP180;5346;48.766;8.674;2022-09-24T00:08:16;93838.00;;;10.40
10598;BMP180;5346;48.766;8.674;2022-09-24T00:10:45;93832.00;;;10.30
10598;BMP180;5346;48.766;8.674;2022-09-24T00:13:28;93831.00;;;10.60
10598;BMP180;5346;48.766;8.674;2022-09-24T00:16:11;93830.00;;;10.50
10598;BMP180;5346;48.766;8.674;2022-09-24T00:18:46;93830.00;;;10.50
10598;BMP180;5346;48.766;8.674;2022-09-24T00:21:20;93827.00;;;10.60
10598;BMP180;5346;48.766;8.674;2022-09-24T00:24:09;93836.00;;;10.50
10598;BMP180;5346;48.766;8.674;2022-09-24T00:26:38;93833.00;;;10.40
10598;BMP180;5346;48.766;8.674;2022-09-24T00:29:24;93832.00;;;10.30
10598;BMP180;5346;48.766;8.674;2022-09-24T00:31:52;93823.00;;;10.20
10598;BMP180;5346;48.766;8.674;2022-09-24T00:34:20;93818.00;;;10.10
10598;BMP180;5346;48.766;8.674;2022-09-24T00:36:54;93810.00;;;10.10
10598;BMP180;5346;48.766;8.674;2022-09-24T00:39:22;93811.00;;;10.00
10598;BMP180;5346;48.766;8.674;2022-09-24T00:41:49;93803.00;;;10.00
10598;BMP180;5346;48.766;8.674;2022-09-24T00:47:25;93799.00;;;10.00
10598;BMP180;5346;48.766;8.674;2022-09-24T00:50:20;93801.00;;;9.80
10598;BMP180;5346;48.766;8.674;2022-09-24T00:52:55;93797.00;;;9.80
10598;BMP180;5346;48.766;8.674;2022-09-24T00:55:33;93802.00;;;9.60
10598;BMP180;5346;48.766;8.674;2022-09-24T00:58:05;93804.00;;;9.60
10598;BMP180;5346;48.766;8.674;2022-09-24T01:00:41;93797.00;;;9.40
10598;BMP180;5346;48.766;8.674;2022-09-24T01:03:15;93798.00;;;9.60
10598;BMP180;5346;48.766;8.674;2022-09-24T01:05:49;93786.00;;;9.40
10598;BMP180;5346;48.766;8.674;2022-09-24T01:08:18;93783.00;;;9.40
10598;BMP180;5346;48.766;8.674;2022-09-24T01:28:25;93764.00;;;9.30
10598;BMP180;5346;48.766;8.674;2022-09-24T01:31:14;93768.00;;;9.60
10598;BMP180;5346;48.766;8.674;2022-09-24T01:33:45;93751.00;;;9.50
10598;BMP180;5346;48.766;8.674;2022-09-24T01:36:22;93751.00;;;9.60
10598;BMP180;5346;48.766;8.674;2022-09-24T01:38:53;93755.00;;;9.70
10598;BMP180;5346;48.766;8.674;2022-09-24T01:41:28;93746.00;;;9.80
10598;BMP180;5346;48.766;8.674;2022-09-24T01:43:58;93744.00;;;9.70
10598;BMP180;5346;48.766;8.674;2022-09-24T01:46:26;93743.00;;;9.80
10598;BMP180;5346;48.766;8.674;2022-09-24T01:49:00;93739.00;;;9.80
10598;BMP180;5346;48.766;8.674;2022-09-24T01:51:35;93734.00;;;10.00
10598;BMP180;5346;48.766;8.674;2022-09-24T02:02:26;93721.00;;;9.90
10598;BMP180;5346;48.766;8.674;2022-09-24T02:05:40;93728.00;;;9.80
10598;BMP180;5346;48.766;8.674;2022-09-24T02:08:23;93728.00;;;9.80
10598;BMP180;5346;48.766;8.674;2022-09-24T02:11:05;93725.00;;;10.00
10598;BMP180;5346;48.766;8.674;2022-09-24T02:16:32;93724.00;;;10.30
10598;BMP180;5346;48.766;8.674;2022-09-24T02:19:14;93725.00;;;10.10
10598;BMP180;5346;48.766;8.674;2022-09-24T02:21:50;93722.00;;;10.20
10598;BMP180;5346;48.766;8.674;2022-09-24T02:24:21;93723.00;;;10.10
10598;BMP180;5346;48.766;8.674;2022-09-24T02:26:56;93718.00;;;10.20
10598;BMP180;5346;48.766;8.674;2022-09-24T02:29:24;93706.00;;;10.30
10598;BMP180;5346;48.766;8.674;2022-09-24T02:31:54;93708.00;;;10.30
10598;BMP180;5346;48.766;8.674;2022-09-24T02:34:37;93712.00;;;10.30
10598;BMP180;5346;48.766;8.674;2022-09-24T02:37:14;93722.00;;;10.40
10598;BMP180;5346;48.766;8.674;2022-09-24T02:39:48;93711.00;;;10.50
10598;BMP180;5346;48.766;8.674;2022-09-24T02:42:18;93718.00;;;10.50
10598;BMP180;5346;48.766;8.674;2022-09-24T02:44:46;93726.00;;;10.50
10598;BMP180;5346;48.766;8.674;2022-09-24T02:47:22;93731.00;;;10.60
10598;BMP180;5346;48.766;8.674;2022-09-24T02:49:49;93721.00;;;10.60
10598;BMP180;5346;48.766;8.674;2022-09-24T02:52:19;93723.00;;;10.70
10598;BMP180;5346;48.766;8.674;2022-09-24T02:54:54;93719.00;;;10.80
10598;BMP180;5346;48.766;8.674;2022-09-24T02:57:21;93711.00;;;10.80
10598;BMP180;5346;48.766;8.674;2022-09-24T02:59:49;93702.00;;;10.70
10598;BMP180;5346;48.766;8.674;2022-09-24T03:02:25;93703.00;;;10.80
10598;BMP180;5346;48.766;8.674;2022-09-24T03:04:53;93702.00;;;10.80
10598;BMP180;5346;48.766;8.674;2022-09-24T03:07:21;93704.00;;;10.70
10598;BMP180;5346;48.766;8.674;2022-09-24T03:09:55;93692.00;;;10.80
10598;BMP180;5346;48.766;8.674;2022-09-24T03:12:23;93691.00;;;10.80
10598;BMP180;5346;48.766;8.674;2022-09-24T03:14:54;93690.00;;;10.90
10598;BMP180;5346;48.766;8.674;2022-09-24T03:17:29;93690.00;;;10.90
10598;BMP180;5346;48.766;8.674;2022-09-24T03:19:57;93688.00;;;10.90
10598;BMP180;5346;48.766;8.674;2022-09-24T03:22:24;93690.00;;;10.70
10598;BMP180;5346;48.766;8.674;2022-09-24T03:24:58;93686.00;;;10.60
10598;BMP180;5346;48.766;8.674;2022-09-24T03:27:26;93680.00;;;10.60
10598;BMP180;5346;48.766;8.674;2022-09-24T03:29:53;93679.00;;;10.50
10598;BMP180;5346;48.766;8.674;2022-09-24T03:32:47;93693.00;;;10.50
10598;BMP180;5346;48.766;8.674;2022-09-24T03:35:15;93700.00;;;10.50
10598;BMP180;5346;48.766;8.674;2022-09-24T03:37:43;93702.00;;;10.60
10598;BMP180;5346;48.766;8.674;2022-09-24T03:40:17;93712.00;;;10.70
10598;BMP180;5346;48.766;8.674;2022-09-24T03:42:47;93698.00;;;10.60
10598;BMP180;5346;48.766;8.674;2022-09-24T03:45:15;93693.00;;;10.70
10598;BMP180;5346;48.766;8.674;2022-09-24T03:47:49;93689.00;;;10.60
10598;BMP180;5346;48.766;8.674;2022-09-24T03:50:17;93687.00;;;10.80
10598;BMP180;5346;48.766;8.674;2022-09-24T03:52:44;93685.00;;;10.90
10598;BMP180;5346;48.766;8.674;2022-09-24T03:55:18;93681.00;;;10.90
10598;BMP180;5346;48.766;8.674;2022-09-24T03:57:46;93684.00;;;10.90
10598;BMP180;5346;48.766;8.674;2022-09-24T04:00:13;93676.00;;;10.80
10598;BMP180;5346;48.766;8.674;2022-09-24T04:02:48;93680.00;;;10.90
10598;BMP180;5346;48.766;8.674;2022-09-24T04:05:16;93685.00;;;10.90
10598;BMP180;5346;48.766;8.674;2022-09-24T04:07:45;93674.00;;;10.90
10598;BMP180;5346;48.766;8.674;2022-09-24T04:10:19;93679.00;;;10.90
10598;BMP180;5346;48.766;8.674;2022-09-24T04:12:46;93671.00;;;11.00
10598;BMP180;5346;48.766;8.674;2022-09-24T04:15:14;93669.00;;;11.00
10598;BMP180;5346;48.766;8.674;2022-09-24T04:17:52;93677.00;;;11.00
10598;BMP180;5346;48.766;8.674;2022-09-24T04:20:21;93670.00;;;11.00
10598;BMP180;5346;48.766;8.674;2022-09-24T04:22:58;93670.00;;;11.00
10598;BMP180;5346;48.766;8.674;2022-09-24T04:25:27;93668.00;;;10.70
10598;BMP180;5346;48.766;8.674;2022-09-24T04:28:01;93664.00;;;10.80
10598;BMP180;5346;48.766;8.674;2022-09-24T04:30:38;93666.00;;;10.80
10598;BMP180;5346;48.766;8.674;2022-09-24T04:33:07;93658.00;;;10.90
10598;BMP180;5346;48.766;8.674;2022-09-24T04:35:35;93658.00;;;10.80
10598;BMP180;5346;48.766;8.674;2022-09-24T04:38:09;93663.00;;;10.70
10598;BMP180;5346;48.766;8.674;2022-09-24T04:40:37;93660.00;;;10.80
10598;BMP180;5346;48.766;8.674;2022-09-24T04:43:06;93665.00;;;10.90
10598;BMP180;5346;48.766;8.674;2022-09-24T04:45:40;93663.00;;;10.80
10598;BMP180;5346;48.766;8.674;2022-09-24T04:48:10;93653.00;;;10.90
10598;BMP180;5346;48.766;8.674;2022-09-24T04:50:37;93663.00;;;11.00
10598;BMP180;5346;48.766;8.674;2022-09-24T04:53:13;93658.00;;;10.90
10598;BMP180;5346;48.766;8.674;2022-09-24T04:55:40;93670.00;;;10.90
10598;BMP180;5346;48.766;8.674;2022-09-24T04:58:08;93664.00;;;10.90
10598;BMP180;5346;48.766;8.674;2022-09-24T05:00:42;93675.00;;;10.80
10598;BMP180;5346;48.766;8.674;2022-09-24T05:03:09;93670.00;;;11.10
10598;BMP180;5346;48.766;8.674;2022-09-24T05:05:37;93666.00;;;11.20
10598;BMP180;5346;48.766;8.674;2022-09-24T05:08:11;93659.00;;;11.00
10598;BMP180;5346;48.766;8.674;2022-09-24T05:10:40;93669.00;;;11.10
10598;BMP180;5346;48.766;8.674;2022-09-24T05:13:08;93669.00;;;11.10
10598;BMP180;5346;48.766;8.674;2022-09-24T05:15:49;93659.00;;;11.10
10598;BMP180;5346;48.766;8.674;2022-09-24T05:18:16;93671.00;;;11.10
10598;BMP180;5346;48.766;8.674;2022-09-24T05:20:50;93669.00;;;11.00
10598;BMP180;5346;48.766;8.674;2022-09-24T05:23:17;93671.00;;;11.00
10598;BMP180;5346;48.766;8.674;2022-09-24T05:25:45;93671.00;;;10.90
10598;BMP180;5346;48.766;8.674;2022-09-24T05:28:40;93678.00;;;10.90
10598;BMP180;5346;48.766;8.674;2022-09-24T05:31:09;93675.00;;;11.00
10598;BMP180;5346;48.766;8.674;2022-09-24T05:33:39;93673.00;;;11.00
10598;BMP180;5346;48.766;8.674;2022-09-24T05:36:14;93676.00;;;11.00
10598;BMP180;5346;48.766;8.674;2022-09-24T05:38:42;93676.00;;;10.90
10598;BMP180;5346;48.766;8.674;2022-09-24T05:41:12;93679.00;;;10.90
10598;BMP180;5346;48.766;8.674;2022-09-24T05:43:46;93670.00;;;11.00
10598;BMP180;5346;48.766;8.674;2022-09-24T05:46:15;93685.00;;;11.20
10598;BMP180;5346;48.766;8.674;2022-09-24T05:48:42;93679.00;;;11.40
10598;BMP180;5346;48.766;8.674;2022-09-24T05:51:16;93674.00;;;11.40
10598;BMP180;5346;48.766;8.674;2022-09-24T05:53:46;93673.00;;;11.20
10598;BMP180;5346;48.766;8.674;2022-09-24T05:56:16;93676.00;;;11.30
10598;BMP180;5346;48.766;8.674;2022-09-24T05:58:53;93674.00;;;11.20
10598;BMP180;5346;48.766;8.674;2022-09-24T06:01:21;93676.00;;;11.20
10598;BMP180;5346;48.766;8.674;2022-09-24T06:03:50;93678.00;;;11.40
10598;BMP180;5346;48.766;8.674;2022-09-24T06:06:25;93683.00;;;11.40
10598;BMP180;5346;48.766;8.674;2022-09-24T06:08:54;93694.00;;;11.40
10598;BMP180;5346;48.766;8.674;2022-09-24T06:11:22;93688.00;;;11.50
10598;BMP180;5346;48.766;8.674;2022-09-24T06:13:56;93697.00;;;11.70
10598;BMP180;5346;48.766;8.674;2022-09-24T06:16:38;93693.00;;;11.90
10598;BMP180;5346;48.766;8.674;2022-09-24T06:19:12;93692.00;;;12.00
10598;BMP180;5346;48.766;8.674;2022-09-24T06:21:42;93695.00;;;12.10
10598;BMP180;5346;48.766;8.674;2022-09-24T06:24:10;93693.00;;;12.10
10598;BMP180;5346;48.766;8.674;2022-09-24T06:26:44;93694.00;;;12.20
10598;BMP180;5346;48.766;8.674;2022-09-24T06:29:12;93698.00;;;12.20
10598;BMP180;5346;48.766;8.674;2022-09-24T06:31:40;93692.00;;;12.20
10598;BMP180;5346;48.766;8.674;2022-09-24T06:34:13;93696.00;;;12.20
10598;BMP180;5346;48.766;8.674;2022-09-24T06:36:42;93690.00;;;12.30
10598;BMP180;5346;48.766;8.674;2022-09-24T06:39:09;93702.00;;;12.30
10598;BMP180;5346;48.766;8.674;2022-09-24T06:41:42;93698.00;;;12.40
10598;BMP180;5346;48.766;8.674;2022-09-24T06:44:10;93703.00;;;12.50
10598;BMP180;5346;48.766;8.674;2022-09-24T06:46:37;93700.00;;;12.50
10598;BMP180;5346;48.766;8.674;2022-09-24T06:49:11;93704.00;;;12.60
10598;BMP180;5346;48.766;8.674;2022-09-24T06:51:39;93700.00;;;12.60
10598;BMP180;5346;48.766;8.674;2022-09-24T06:54:07;93697.00;;;12.60
10598;BMP180;5346;48.766;8.674;2022-09-24T06:56:40;93701.00;;;12.80
10598;BMP180;5346;48.766;8.674;2022-09-24T06:59:08;93704.00;;;12.90
10598;BMP180;5346;48.766;8.674;2022-09-24T07:01:36;93713.00;;;13.00
10598;BMP180;5346;48.766;8.674;2022-09-24T07:04:12;93710.00;;;13.00
10598;BMP180;5346;48.766;8.674;2022-09-24T07:06:39;93706.00;;;13.00
10598;BMP180;5346;48.766;8.674;2022-09-24T07:09:31;93713.00;;;13.00
10598;BMP180;5346;48.766;8.674;2022-09-24T07:11:59;93716.00;;;13.00
10598;BMP180;5346;48.766;8.674;2022-09-24T07:14:31;93710.00;;;13.00
10598;BMP180;5346;48.766;8.674;2022-09-24T07:17:04;93712.00;;;13.00
10598;BMP180;5346;48.766;8.674;2022-09-24T07:19:39;93713.00;;;13.20
10598;BMP180;5346;48.766;8.674;2022-09-24T07:22:13;93717.00;;;13.20
10598;BMP180;5346;48.766;8.674;2022-09-24T07:24:40;93717.00;;;13.30
10598;BMP180;5346;48.766;8.674;2022-09-24T07:27:09;93720.00;;;13.30
10598;BMP180;5346;48.766;8.674;2022-09-24T07:29:42;93722.00;;;13.40
10598;BMP180;5346;48.766;8.674;2022-09-24T07:32:10;93716.00;;;13.50
10598;BMP180;5346;48.766;8.674;2022-09-24T07:34:39;93722.00;;;13.50
10598;BMP180;5346;48.766;8.674;2022-09-24T07:37:12;93729.00;;;13.50
10598;BMP180;5346;48.766;8.674;2022-09-24T07:39:40;93733.00;;;13.50
10598;BMP180;5346;48.766;8.674;2022-09-24T07:42:08;93730.00;;;13.50
10598;BMP180;5346;48.766;8.674;2022-09-24T07:44:43;93739.00;;;13.40
10598;BMP180;5346;48.766;8.674;2022-09-24T07:47:10;93734.00;;;13.40
10598;BMP180;5346;48.766;8.674;2022-09-24T07:49:41;93736.00;;;13.40
10598;BMP180;5346;48.766;8.674;2022-09-24T07:52:15;93742.00;;;13.30
10598;BMP180;5346;48.766;8.674;2022-09-24T07:54:43;93742.00;;;13.40
10598;BMP180;5346;48.766;8.674;2022-09-24T07:57:11;93745.00;;;13.40
10598;BMP180;5346;48.766;8.674;2022-09-24T07:59:48;93738.00;;;13.30
10598;BMP180;5346;48.766;8.674;2022-09-24T08:02:18;93736.00;;;13.50
10598;BMP180;5346;48.766;8.674;2022-09-24T08:04:45;93739.00;;;13.60
10598;BMP180;5346;48.766;8.674;2022-09-24T08:07:19;93743.00;;;13.40
10598;BMP180;5346;48.766;8.674;2022-09-24T08:09:49;93741.00;;;13.30
10598;BMP180;5346;48.766;8.674;2022-09-24T08:12:16;93746.00;;;13.40
10598;BMP180;5346;48.766;8.674;2022-09-24T08:14:57;93739.00;;;13.30
10598;BMP180;5346;48.766;8.674;2022-09-24T08:17:39;93747.00;;;13.30
10598;BMP180;5346;48.766;8.674;2022-09-24T08:20:16;93745.00;;;13.40
10598;BMP180;5346;48.766;8.674;2022-09-24T08:22:44;93755.00;;;13.50
10598;BMP180;5346;48.766;8.674;2022-09-24T08:25:12;93750.00;;;13.60
10598;BMP180;5346;48.766;8.674;2022-09-24T08:27:45;93753.00;;;13.50
10598;BMP180;5346;48.766;8.674;2022-09-24T08:30:13;93757.00;;;13.50
10598;BMP180;5346;48.766;8.674;2022-09-24T08:32:46;93759.00;;;13.40
10598;BMP180;5346;48.766;8.674;2022-09-24T08:35:21;93762.00;;;13.40
10598;BMP180;5346;48.766;8.674;2022-09-24T08:37:48;93761.00;;;13.50
10598;BMP180;5346;48.766;8.674;2022-09-24T08:40:25;93751.00;;;13.60
10598;BMP180;5346;48.766;8.674;2022-09-24T08:43:08;93752.00;;;13.90
10598;BMP180;5346;48.766;8.674;2022-09-24T08:49:36;93762.00;;;14.20
10598;BMP180;5346;48.766;8.674;2022-09-24T08:55:09;93754.00;;;14.30
10598;BMP180;5346;48.766;8.674;2022-09-24T08:58:07;93751.00;;;14.40
10598;BMP180;5346;48.766;8.674;2022-09-24T09:03:48;93753.00;;;14.40
10598;BMP180;5346;48.766;8.674;2022-09-24T09:09:23;93751.00;;;14.20
10598;BMP180;5346;48.766;8.674;2022-09-24T09:12:01;93756.00;;;14.10
10598;BMP180;5346;48.766;8.674;2022-09-24T09:17:31;93754.00;;;14.20
10598;BMP180;5346;48.766;8.674;2022-09-24T09:20:22;93747.00;;;14.40
10598;BMP180;5346;48.766;8.674;2022-09-24T09:23:01;93747.00;;;14.50
10598;BMP180;5346;48.766;8.674;2022-09-24T09:25:34;93747.00;;;14.70
10598;BMP180;5346;48.766;8.674;2022-09-24T09:28:14;93749.00;;;14.90
10598;BMP180;5346;48.766;8.674;2022-09-24T09:30:56;93749.00;;;15.00
10598;BMP180;5346;48.766;8.674;2022-09-24T09:42:31;93719.00;;;15.70
10598;BMP180;5346;48.766;8.674;2022-09-24T09:47:56;93746.00;;;16.10
10598;BMP180;5346;48.766;8.674;2022-09-24T09:50:37;93742.00;;;16.00
10598;BMP180;5346;48.766;8.674;2022-09-24T09:53:16;93746.00;;;15.90
10598;BMP180;5346;48.766;8.674;2022-09-24T09:58:24;93753.00;;;15.60
10598;BMP180;5346;48.766;8.674;2022-09-24T10:01:14;93754.00;;;15.10
10598;BMP180;5346;48.766;8.674;2022-09-24T10:03:46;93755.00;;;15.00
10598;BMP180;5346;48.766;8.674;2022-09-24T10:06:27;93759.00;;;14.60
10598;BMP180;5346;48.766;8.674;2022-09-24T10:09:17;93758.00;;;14.60
10598;BMP180;5346;48.766;8.674;2022-09-24T10:11:54;93769.00;;;14.40
10598;BMP180;5346;48.766;8.674;2022-09-24T10:14:38;93769.00;;;14.20
10598;BMP180;5346;48.766;8.674;2022-09-24T10:17:16;93766.00;;;14.30
10598;BMP180;5346;48.766;8.674;2022-09-24T10:19:51;93764.00;;;14.30
10598;BMP180;5346;48.766;8.674;2022-09-24T10:22:27;93764.00;;;14.10
10598;BMP180;5346;48.766;8.674;2022-09-24T10:24:57;93757.00;;;14.50
10598;BMP180;5346;48.766;8.674;2022-09-24T10:27:35;93754.00;;;14.60
10598;BMP180;5346;48.766;8.674;2022-09-24T10:30:13;93756.00;;;15.00
10598;BMP180;5346;48.766;8.674;2022-09-24T10:33:06;93751.00;;;15.10
10598;BMP180;5346;48.766;8.674;2022-09-24T10:35:36;93758.00;;;15.00
10598;BMP180;5346;48.766;8.674;2022-09-24T10:40:50;93757.00;;;15.00
10598;BMP180;5346;48.766;8.674;2022-09-24T10:43:19;93755.00;;;15.20
10598;BMP180;5346;48.766;8.674;2022-09-24T10:46:04;93755.00;;;15.20
10598;BMP180;5346;48.766;8.674;2022-09-24T10:48:47;93758.00;;;14.80
10598;BMP180;5346;48.766;8.674;2022-09-24T10:51:27;93761.00;;;14.60
10598;BMP180;5346;48.766;8.674;2022-09-24T10:54:16;93761.00;;;14.60
10598;BMP180;5346;48.766;8.674;2022-09-24T10:56:51;93757.00;;;14.40
10598;BMP180;5346;48.766;8.674;2022-09-24T10:59:43;93761.00;;;14.50
10598;BMP180;5346;48.766;8.674;2022-09-24T11:02:23;93754.00;;;14.50
10598;BMP180;5346;48.766;8.674;2022-09-24T11:05:12;93771.00;;;14.40
10598;BMP180;5346;48.766;8.674;2022-09-24T11:36:49;93767.00;;;13.20
10598;BMP180;5346;48.766;8.674;2022-09-24T11:40:07;93763.00;;;13.10
10598;BMP180;5346;48.766;8.674;2022-09-24T11:42:50;93761.00;;;13.00
10598;BMP180;5346;48.766;8.674;2022-09-24T11:45:35;93765.00;;;13.10
10598;BMP180;5346;48.766;8.674;2022-09-24T11:54:28;93750.00;;;13.10
10598;BMP180;5346;48.766;8.674;2022-09-24T11:57:16;93751.00;;;13.10
10598;BMP180;5346;48.766;8.674;2022-09-24T12:02:56;93749.00;;;13.30
10598;BMP180;5346;48.766;8.674;2022-09-24T12:05:59;93749.00;;;13.50
10598;BMP180;5346;48.766;8.674;2022-09-24T12:08:59;93744.00;;;13.70
10598;BMP180;5346;48.766;8.674;2022-09-24T12:11:35;93739.00;;;13.70
10598;BMP180;5346;48.766;8.674;2022-09-24T12:17:40;93739.00;;;13.90
10598;BMP180;5346;48.766;8.674;2022-09-24T12:20:20;93734.00;;;14.00
10598;BMP180;5346;48.766;8.674;2022-09-24T12:22:53;93739.00;;;14.00
10598;BMP180;5346;48.766;8.674;2022-09-24T12:25:41;93737.00;;;13.90
10598;BMP180;5346;48.766;8.674;2022-09-24T12:28:17;93741.00;;;14.00
10598;BMP180;5346;48.766;8.674;2022-09-24T12:31:25;93730.00;;;14.00
10598;BMP180;5346;48.766;8.674;2022-09-24T12:34:21;93730.00;;;14.20
10598;BMP180;5346;48.766;8.674;2022-09-24T12:37:06;93721.00;;;14.10
10598;BMP180;5346;48.766;8.674;2022-09-24T12:42:44;93724.00;;;14.00
10598;BMP180;5346;48.766;8.674;2022-09-24T12:45:17;93723.00;;;14.10
10598;BMP180;5346;48.766;8.674;2022-09-24T12:47:57;93714.00;;;13.90
10598;BMP180;5346;48.766;8.674;2022-09-24T12:50:31;93717.00;;;14.00
10598;BMP180;5346;48.766;8.674;2022-09-24T12:53:21;93715.00;;;13.90
10598;BMP180;5346;48.766;8.674;2022-09-24T12:55:57;93718.00;;;14.00
10598;BMP180;5346;48.766;8.674;2022-09-24T12:58:40;93712.00;;;14.00
10598;BMP180;5346;48.766;8.674;2022-09-24T13:03:59;93709.00;;;14.40
10598;BMP180;5346;48.766;8.674;2022-09-24T13:06:34;93699.00;;;14.70
10598;BMP180;5346;48.766;8.674;2022-09-24T13:12:03;93696.00;;;15.30
10598;BMP180;5346;48.766;8.674;2022-09-24T13:14:41;93695.00;;;15.50
10598;BMP180;5346;48.766;8.674;2022-09-24T13:17:22;93686.00;;;15.30
10598;BMP180;5346;48.766;8.674;2022-09-24T13:20:15;93685.00;;;15.50
10598;BMP180;5346;48.766;8.674;2022-09-24T13:28:27;93674.00;;;15.80
10598;BMP180;5346;48.766;8.674;2022-09-24T13:37:30;93688.00;;;16.20
10598;BMP180;5346;48.766;8.674;2022-09-24T13:42:41;93698.00;;;15.90
10598;BMP180;5346;48.766;8.674;2022-09-24T13:45:18;93694.00;;;15.60
10598;BMP180;5346;48.766;8.674;2022-09-24T13:48:04;93690.00;;;15.10
10598;BMP180;5346;48.766;8.674;2022-09-24T13:50:37;93701.00;;;15.00
10598;BMP180;5346;48.766;8.674;2022-09-24T13:55:51;93700.00;;;15.30
10598;BMP180;5346;48.766;8.674;2022-09-24T14:00:57;93691.00;;;15.30
10598;BMP180;5346;48.766;8.674;2022-09-24T14:03:29;93690.00;;;15.40
10598;BMP180;5346;48.766;8.674;2022-09-24T14:06:15;93682.00;;;15.50
10598;BMP180;5346;48.766;8.674;2022-09-24T14:08:46;93678.00;;;15.60
10598;BMP180;5346;48.766;8.674;2022-09-24T14:11:22;93689.00;;;15.70
10598;BMP180;5346;48.766;8.674;2022-09-24T14:13:53;93678.00;;;15.60
10598;BMP180;5346;48.766;8.674;2022-09-24T14:16:29;93678.00;;;15.40
10598;BMP180;5346;48.766;8.674;2022-09-24T14:19:06;93681.00;;;15.50
10598;BMP180;5346;48.766;8.674;2022-09-24T14:21:53;93679.00;;;15.60
10598;BMP180;5346;48.766;8.674;2022-09-24T14:27:28;93687.00;;;15.70
10598;BMP180;5346;48.766;8.674;2022-09-24T14:30:16;93684.00;;;15.60
10598;BMP180;5346;48.766;8.674;2022-09-24T14:33:03;93687.00;;;15.50
10598;BMP180;5346;48.766;8.674;2022-09-24T14:35:34;93679.00;;;15.60
10598;BMP180;5346;48.766;8.674;2022-09-24T14:38:15;93682.00;;;15.50
10598;BMP180;5346;48.766;8.674;2022-09-24T14:40:59;93692.00;;;15.50
10598;BMP180;5346;48.766;8.674;2022-09-24T14:43:58;93693.00;;;15.40
10598;BMP180;5346;48.766;8.674;2022-09-24T14:47:18;93687.00;;;15.20
10598;BMP180;5346;48.766;8.674;2022-09-24T14:49:56;93686.00;;;15.10
10598;BMP180;5346;48.766;8.674;2022-09-24T14:52:30;93673.00;;;14.80
10598;BMP180;5346;48.766;8.674;2022-09-24T14:55:12;93679.00;;;14.60
10598;BMP180;5346;48.766;8.674;2022-09-24T14:57:43;93678.00;;;14.60
10598;BMP180;5346;48.766;8.674;2022-09-24T15:00:29;93679.00;;;14.40
10598;BMP180;5346;48.766;8.674;2022-09-24T15:03:15;93682.00;;;14.40
10598;BMP180;5346;48.766;8.674;2022-09-24T15:05:50;93672.00;;;14.40
10598;BMP180;5346;48.766;8.674;2022-09-24T15:10:54;93667.00;;;14.40
10598;BMP180;5346;48.766;8.674;2022-09-24T15:13:34;93670.00;;;14.50
10598;BMP180;5346;48.766;8.674;2022-09-24T15:16:42;93678.00;;;14.50
10598;BMP180;5346;48.766;8.674;2022-09-24T15:21:49;93677.00;;;14.50
10598;BMP180;5346;48.766;8.674;2022-09-24T15:24:24;93676.00;;;14.40
10598;BMP180;5346;48.766;8.674;2022-09-24T15:27:13;93677.00;;;14.40
10598;BMP180;5346;48.766;8.674;2022-09-24T15:29:48;93679.00;;;14.20
10598;BMP180;5346;48.766;8.674;2022-09-24T15:32:18;93677.00;;;14.30
10598;BMP180;5346;48.766;8.674;2022-09-24T15:34:47;93675.00;;;14.40
10598;BMP180;5346;48.766;8.674;2022-09-24T15:37:23;93681.00;;;14.40
10598;BMP180;5346;48.766;8.674;2022-09-24T15:39:52;93688.00;;;14.50
10598;BMP180;5346;48.766;8.674;2022-09-24T15:42:29;93685.00;;;14.40
10598;BMP180;5346;48.766;8.674;2022-09-24T15:44:57;93685.00;;;14.30
10598;BMP180;5346;48.766;8.674;2022-09-24T15:47:25;93672.00;;;14.30
10598;BMP180;5346;48.766;8.674;2022-09-24T15:49:59;93663.00;;;14.40
10598;BMP180;5346;48.766;8.674;2022-09-24T15:52:28;93669.00;;;14.40
10598;BMP180;5346;48.766;8.674;2022-09-24T15:55:00;93676.00;;;14.60
10598;BMP180;5346;48.766;8.674;2022-09-24T15:57:35;93675.00;;;14.30
10598;BMP180;5346;48.766;8.674;2022-09-24T16:00:03;93674.00;;;14.20
10598;BMP180;5346;48.766;8.674;2022-09-24T16:02:32;93672.00;;;14.20
10598;BMP180;5346;48.766;8.674;2022-09-24T16:05:11;93675.00;;;14.20
10598;BMP180;5346;48.766;8.674;2022-09-24T16:07:40;93668.00;;;14.10
10598;BMP180;5346;48.766;8.674;2022-09-24T16:10:16;93672.00;;;14.00
10598;BMP180;5346;48.766;8.674;2022-09-24T16:12:44;93668.00;;;14.00
10598;BMP180;5346;48.766;8.674;2022-09-24T16:15:13;93671.00;;;13.80
10598;BMP180;5346;48.766;8.674;2022-09-24T16:17:48;93673.00;;;13.80
10598;BMP180;5346;48.766;8.674;2022-09-24T16:20:16;93670.00;;;13.70
10598;BMP180;5346;48.766;8.674;2022-09-24T16:22:44;93656.00;;;13.70
10598;BMP180;5346;48.766;8.674;2022-09-24T16:25:18;93656.00;;;13.60
10598;BMP180;5346;48.766;8.674;2022-09-24T16:27:45;93655.00;;;13.50
10598;BMP180;5346;48.766;8.674;2022-09-24T16:30:13;93664.00;;;13.50
10598;BMP180;5346;48.766;8.674;2022-09-24T16:32:48;93666.00;;;13.40
10598;BMP180;5346;48.766;8.674;2022-09-24T16:35:16;93669.00;;;13.40
10598;BMP180;5346;48.766;8.674;2022-09-24T16:37:43;93667.00;;;13.30
10598;BMP180;5346;48.766;8.674;2022-09-24T16:40:18;93666.00;;;13.30
10598;BMP180;5346;48.766;8.674;2022-09-24T16:42:46;93663.00;;;13.30
10598;BMP180;5346;48.766;8.674;2022-09-24T16:45:13;93669.00;;;13.30
10598;BMP180;5346;48.766;8.674;2022-09-24T16:47:48;93674.00;;;13.20
10598;BMP180;5346;48.766;8.674;2022-09-24T16:50:15;93675.00;;;13.20
10598;BMP180;5346;48.766;8.674;2022-09-24T16:52:43;93673.00;;;13.10
10598;BMP180;5346;48.766;8.674;2022-09-24T16:55:20;93670.00;;;13.00
10598;BMP180;5346;48.766;8.674;2022-09-24T16:57:53;93676.00;;;13.00
10598;BMP180;5346;48.766;8.674;2022-09-24T17:00:27;93673.00;;;12.90
10598;BMP180;5346;48.766;8.674;2022-09-24T17:02:54;93674.00;;;12.90
10598;BMP180;5346;48.766;8.674;2022-09-24T17:05:22;93668.00;;;13.00
10598;BMP180;5346;48.766;8.674;2022-09-24T17:07:56;93674.00;;;13.00
10598;BMP180;5346;48.766;8.674;2022-09-24T17:10:23;93680.00;;;12.90
10598;BMP180;5346;48.766;8.674;2022-09-24T17:12:51;93687.00;;;12.90
10598;BMP180;5346;48.766;8.674;2022-09-24T17:15:25;93681.00;;;12.90
10598;BMP180;5346;48.766;8.674;2022-09-24T17:18:07;93686.00;;;13.00
10598;BMP180;5346;48.766;8.674;2022-09-24T17:20:41;93695.00;;;12.80
10598;BMP180;5346;48.766;8.674;2022-09-24T17:23:19;93698.00;;;12.70
10598;BMP180;5346;48.766;8.674;2022-09-24T17:26:17;93705.00;;;12.50
10598;BMP180;5346;48.766;8.674;2022-09-24T17:28:50;93696.00;;;12.30